Terminal Aerodrome Forecast
Issued by NWS

Home | Current Version | Previous Version | Text Only | Print | Product List | Glossary On
Versions: 1 2 3 4 5 6 7 8 9 10 11 12 13 14 15 16 17 18 19 20 21 22 23 24
000
FTUS44 KMOB 031727
TAFBFM
TAF
KBFM 031727Z 0318/0418 12007KT P6SM VCTS SCT035CB BKN150 BKN250
     FM040300 24002KT P6SM FEW035 BKN250
     FM041000 34002KT 5SM BR BKN250
     FM041400 06004KT P6SM SCT250=

USA.gov is the U.S. government's official web portal to all federal, state and local government web resources and services.